Airfield :
LOGIN :

Register | Disclaimer

   EN    FR    IT 

 










Legend :    VFR   Marginal VFR   IFR   Intensive IFR   Very Intensive IFR
Visi :
Ceiling :
>= 8 km
>= 3000ft
5 to 8 km
1000 to 3000 ft
1500m to 5 km
500 to 1000 ft
800 to 1500m
200 to 500 ft
< 800m
< 200 ft
Symbols :   Thunderstorms  Fog  Heavy snow  Heavy precipitations  Wind > 20 kt
SIGMETs :     Misc.  Thunderstorms  Icing  Turbulence  Mountain Waves  Volcanic Ashes







- Airport Elevation : 11 ft
- IATA code : MJV


LELC - Murcia San Javier

CURRENT METAR :
  • 141400Z 21010KT 160V240 CAVOK 17/08 Q1019 NOSIG

EXPIRED METARs :
  • 141300Z 20011KT 170V230 CAVOK 17/07 Q1019 NOSIG
  • 141200Z 20008KT 170V240 CAVOK 17/06 Q1020 NOSIG

TAF TAF LELC
Valid from the 14 at 12:00 until the 15 at 12:00 UTC


141100Z 1412/1512 24008KT CAVOK TX18/1414Z TN07/1506Z
No reported NOTAMs for that airfield.
1 SIGMET reported for the Barcelona FIR (LECB) :
 
Severe turbulence
LECB SIGMET 1 VALID 141144/141500 LEVA
LECB BARCELONA FIR SEV TURB OBS AT 1144Z WI N4010 W00050 - N39 W00050 - N39 E00030 - N4010 E00030 - N4010 W00050 FL070/100 STNR NC=



MET'MAP, your aeronautical weather chart ! - Copyright ORBIFLY December 2007 - Disclaimer

ORBIFLY MET'MAP TEAM :

Programming & Development : Alexandra Zaïnal
Concept & Development : Baudouin d'Aumeries
Co-Development & Prog : Marc-Olivier Méhu
Technical & hardware support : Manuel Goepfert

Contact : metmap@orbifly.com




SOURCES & CREDITS :

   NOAA